createdAt,value
2023-02-19T21:00:49.750Z,2.38
2023-02-19T21:03:17.121Z,2.38
2023-02-19T21:05:44.563Z,2.46
2023-02-19T21:08:12.113Z,2.54
2023-02-19T21:10:39.455Z,2.57
2023-02-19T21:13:06.826Z,2.59
2023-02-19T21:15:34.600Z,2.70
2023-02-19T21:18:02.036Z,2.69
2023-02-19T21:20:29.393Z,2.69
2023-02-19T21:22:56.743Z,2.74
2023-02-19T21:25:24.117Z,2.77
2023-02-19T21:27:51.482Z,2.85
2023-02-19T21:30:19.045Z,2.85
2023-02-19T21:32:46.420Z,2.85
2023-02-19T21:35:13.843Z,2.89
2023-02-19T21:37:44.622Z,2.85
2023-02-19T21:40:13.162Z,2.88
2023-02-19T21:42:40.629Z,2.89
2023-02-19T21:45:08.645Z,2.93
2023-02-19T21:47:35.964Z,2.89
2023-02-19T21:50:03.899Z,2.83
2023-02-19T21:52:31.662Z,2.75
2023-02-19T21:54:59.072Z,2.75
2023-02-19T21:57:26.511Z,2.77
2023-02-19T21:59:54.675Z,2.80
2023-02-19T22:02:22.661Z,2.81
2023-02-19T22:04:54.005Z,2.77
2023-02-19T22:07:22.122Z,2.77
2023-02-19T22:09:50.436Z,2.85
2023-02-19T22:12:19.463Z,2.83
2023-02-19T22:14:46.918Z,2.85
2023-02-19T22:17:14.462Z,2.72
2023-02-19T22:19:41.917Z,2.76
2023-02-19T22:22:09.463Z,2.71
2023-02-19T22:24:36.812Z,2.67
2023-02-19T22:27:04.538Z,2.68
2023-02-19T22:29:31.977Z,2.68
2023-02-19T22:31:59.422Z,2.66
2023-02-19T22:34:26.855Z,2.69
2023-02-19T22:36:54.167Z,2.75
2023-02-19T22:39:26.739Z,2.76
2023-02-19T22:41:54.248Z,2.76
2023-02-19T22:44:21.656Z,2.67
2023-02-19T22:46:54.991Z,2.66
2023-02-19T22:49:23.928Z,2.71
2023-02-19T22:51:56.919Z,2.77
2023-02-19T22:54:27.176Z,2.81
2023-02-19T22:56:55.664Z,2.87
2023-02-19T22:59:23.704Z,2.84
2023-02-19T23:01:51.927Z,2.87
2023-02-19T23:04:21.385Z,2.94
2023-02-19T23:06:49.220Z,2.94
2023-02-19T23:09:20.110Z,2.88
2023-02-19T23:11:47.555Z,2.91
2023-02-19T23:14:20.800Z,2.90
2023-02-19T23:16:48.149Z,2.90
2023-02-19T23:19:16.310Z,2.85
2023-02-19T23:21:45.696Z,2.91
2023-02-19T23:24:14.453Z,2.96
2023-02-19T23:26:46.357Z,2.96
2023-02-19T23:29:31.954Z,2.98
2023-02-19T23:32:00.555Z,3.04
2023-02-19T23:34:27.781Z,2.95
2023-02-19T23:36:55.829Z,2.83
2023-02-19T23:39:23.288Z,2.75
2023-02-19T23:41:55.806Z,2.77
2023-02-19T23:44:25.121Z,2.85
2023-02-19T23:46:53.161Z,2.83
2023-02-19T23:49:20.571Z,2.83
2023-02-19T23:51:47.893Z,2.80
2023-02-19T23:54:15.338Z,2.79
2023-02-19T23:56:42.813Z,2.77
2023-02-19T23:59:10.254Z,2.77
